Terminal Aerodrome Forecast
Issued by NWS Blacksburg, VA

Current Version | Previous Version | Graphics & Text | Print | Product List | Glossary On
Versions: 1 2 3 4 5 6 7 8 9 10 11 12 13 14 15 16 17 18 19 20 21 22 23 24 25 26 27 28 29
000
FTUS41 KRNK 271108 AAA
TAFBLF
TAF AMD
KBLF 271108Z 2711/2806 00000KT 1 1/2SM BR SCT060
      TEMPO 2712/2713 4SM BR
     FM271300 11004KT P6SM BKN045
     FM280000 13003KT P6SM SKC=

USA.gov is the U.S. government's official web portal to all federal, state and local government web resources and services.